Silver Cloud — C6MQ5 — position and weather

sailwx.info

Track history (hours):
 
Tides and Currents Weather Stations Pressure Air Temp Water Temp Dewpoint Dewpoint Depression Visibility Wind Speed Wind Dir Waves Ship Positions

Silver Cloud

Operator: V Ships Leisure SAM

Last reported at 2018-Oct-16 12:22 UTC. Time now 2018-Oct-24 04:50 UTC.
Position N 09°19' W 079°55'.

Length 156 m; draft 5.7 m.

Type: Passenger vessel. MMSI: 309027000.

Date/timePositionNaut miles runAvg speedWind from/ knotsBaromVisibWave heightAir tempDewpointWater temp
2018-Oct-16 12:22N 09°19' W 079°55'3 8.0
2018-Oct-16 12:03N 09°21' W 079°55'0 7.7
2018-Oct-16 12:00N 09°22' W 079°55'0 0.6
2018-Oct-16 11:21N 09°22' W 079°55'0 0.0
2018-Oct-16 11:03N 09°22' W 079°55'0 0.1
2018-Oct-16 11:00N 09°22' W 079°55'1 1.5
2018-Oct-16 10:30N 09°23' W 079°55'1 3.1
2018-Oct-16 10:03N 09°23' W 079°54'0 5.2
2018-Oct-16 10:00N 09°23' W 079°54'1 1.6
2018-Oct-16 09:28N 09°22' W 079°54'0 0.0
2018-Oct-16 09:01N 09°22' W 079°54'0 0.0
2018-Oct-16 08:58N 09°22' W 079°54'0 0.0
2018-Oct-16 08:28N 09°22' W 079°54'0 0.0
2018-Oct-16 08:01N 09°22' W 079°54'0 0.0
2018-Oct-16 07:58N 09°22' W 079°54'0 0.0
2018-Oct-16 07:28N 09°22' W 079°54'0 0.0
2018-Oct-16 07:01N 09°22' W 079°54'0 0.0
2018-Oct-16 06:58N 09°22' W 079°54'0 0.0
2018-Oct-16 06:28N 09°22' W 079°54'0 0.0
2018-Oct-16 06:01N 09°22' W 079°54'0 0.1
2018-Oct-16 05:58N 09°22' W 079°54'0 0.0
2018-Oct-16 05:28N 09°22' W 079°54'0 0.0
2018-Oct-16 05:01N 09°22' W 079°54'0 0.0
2018-Oct-16 04:58N 09°22' W 079°54'0 0.0
2018-Oct-16 04:28N 09°22' W 079°54'0 0.0
2018-Oct-16 04:01N 09°22' W 079°54'0 0.0
2018-Oct-16 03:58N 09°22' W 079°54'0 0.0
2018-Oct-16 03:28N 09°22' W 079°54'0 0.0
2018-Oct-16 03:01N 09°22' W 079°54'0 0.0
2018-Oct-16 02:58N 09°22' W 079°54'0 0.0
2018-Oct-16 02:28N 09°22' W 079°54'0 0.0
2018-Oct-16 02:01N 09°22' W 079°54'0 0.0
2018-Oct-16 01:58N 09°22' W 079°54'0 0.0
2018-Oct-16 01:28N 09°22' W 079°54'0 0.0
2018-Oct-16 01:01N 09°22' W 079°54'0 0.0
2018-Oct-16 00:58N 09°22' W 079°54'0 0.0
2018-Oct-16 00:28N 09°22' W 079°54'0 0.0
2018-Oct-16 00:01N 09°22' W 079°54'0 0.0
2018-Oct-15 23:58N 09°22' W 079°54'0 0.0
2018-Oct-15 23:28N 09°22' W 079°54'0 0.0
2018-Oct-15 23:01N 09°22' W 079°54'0 0.0
2018-Oct-15 22:58N 09°22' W 079°54'0 0.0
2018-Oct-15 22:28N 09°22' W 079°54'0 0.0
2018-Oct-15 22:01N 09°22' W 079°54'0 0.0
2018-Oct-15 21:58N 09°22' W 079°54'0 0.0
2018-Oct-15 21:28N 09°22' W 079°54'0 0.0
2018-Oct-15 21:01N 09°22' W 079°54'0 0.0
2018-Oct-15 20:58N 09°22' W 079°54'0 0.0
2018-Oct-15 20:28N 09°22' W 079°54'0 0.0
2018-Oct-15 20:01N 09°22' W 079°54'0 0.0
2018-Oct-15 19:58N 09°22' W 079°54'0 0.0
2018-Oct-15 19:28N 09°22' W 079°54'0 0.0
2018-Oct-15 19:01N 09°22' W 079°54'0 0.1
2018-Oct-15 18:55N 09°22' W 079°54'0 0.0
2018-Oct-15 18:28N 09°22' W 079°54'0 0.0
2018-Oct-15 18:01N 09°22' W 079°54'0 0.0
2018-Oct-15 17:58N 09°22' W 079°54'0 0.0
2018-Oct-15 17:28N 09°22' W 079°54'0 0.0
2018-Oct-15 17:01N 09°22' W 079°54'0 0.1
2018-Oct-15 16:58N 09°22' W 079°54'0 0.0
2018-Oct-15 16:25N 09°22' W 079°54'0 0.0
2018-Oct-15 16:01N 09°22' W 079°54'0 0.0
2018-Oct-15 15:58N 09°22' W 079°54'0 0.0
2018-Oct-15 15:28N 09°22' W 079°54'0 0.0
2018-Oct-15 15:01N 09°22' W 079°54'0 0.0
2018-Oct-15 14:58N 09°22' W 079°54'0 0.0
2018-Oct-15 14:28N 09°22' W 079°54'0 0.0
2018-Oct-15 13:58N 09°22' W 079°54'0 0.0
2018-Oct-15 13:28N 09°22' W 079°54'0 0.0
2018-Oct-15 13:01N 09°22' W 079°54'0 0.0
2018-Oct-15 12:58N 09°22' W 079°54'0 0.0
2018-Oct-15 12:28N 09°22' W 079°54'0 0.0
2018-Oct-15 12:03N 09°22' W 079°54'0 0.0
2018-Oct-15 12:00N 09°22' W 079°54'0 0.0
2018-Oct-15 11:30N 09°22' W 079°54'0 0.9
2018-Oct-15 11:03N 09°22' W 079°54'0 2.8
2018-Oct-15 11:00N 09°22' W 079°54'2 4.9
2018-Oct-15 10:30N 09°25' W 079°54'711.4
2018-Oct-15 09:51N 09°32' W 079°53'253 8.6
2018-Oct-14 04:20N 10°18' W 075°40'516.4
2018-Oct-14 04:03N 10°19' W 075°36'0 8.6
2018-Oct-14 04:00N 10°19' W 075°35'4 8.6
2018-Oct-14 03:30N 10°22' W 075°32'3 4.9
2018-Oct-14 02:56N 10°24' W 075°32'0 0.0
2018-Oct-14 02:26N 10°24' W 075°32'0 0.0
2018-Oct-14 02:02N 10°24' W 075°32'0 0.1
2018-Oct-14 01:59N 10°24' W 075°32'0 0.0
2018-Oct-14 01:26N 10°24' W 075°32'0 0.0
2018-Oct-14 00:56N 10°24' W 075°32'0 0.0
2018-Oct-14 00:23N 10°24' W 075°32'0 0.0
2018-Oct-13 23:32N 10°24' W 075°32'0 0.0
2018-Oct-13 23:20N 10°24' W 075°32'0 0.0
2018-Oct-13 23:02N 10°24' W 075°32'0 0.1
2018-Oct-13 22:56N 10°24' W 075°32'0 0.0
2018-Oct-13 17:50N 10°24' W 075°32'0 0.0
2018-Oct-13 17:26N 10°24' W 075°32'0 0.0
2018-Oct-13 17:02N 10°24' W 075°32'0 0.1
2018-Oct-13 16:56N 10°24' W 075°32'0 0.0
2018-Oct-13 16:26N 10°24' W 075°32'0 0.0
2018-Oct-13 16:02N 10°24' W 075°32'0 0.0
2018-Oct-13 15:59N 10°24' W 075°32'0 0.0
2018-Oct-13 15:26N 10°24' W 075°32'0 0.0
2018-Oct-13 12:56N 10°24' W 075°32'0 0.0
2018-Oct-13 12:17N 10°24' W 075°32'0 0.0
2018-Oct-13 12:02N 10°24' W 075°32'0 0.0
2018-Oct-13 11:59N 10°24' W 075°32'0 0.6
2018-Oct-13 11:30N 10°24' W 075°32'3 5.7
2018-Oct-13 11:02N 10°21' W 075°32'010.0
2018-Oct-13 11:00N 10°21' W 075°32'5 9.4
2018-Oct-13 10:30N 10°19' W 075°36'713.7
2018-Oct-13 10:01N 10°22' W 075°42'115.1
2018-Oct-13 09:59N 10°22' W 075°43'  
Track history (hours):
 
Tides and Currents Weather Stations Pressure Air Temp Water Temp Dewpoint Dewpoint Depression Visibility Wind Speed Wind Dir Waves Ship Positions

Silver Cloud

Operator: V Ships Leisure SAM

Last reported at 2018-Oct-16 12:22 UTC. Time now 2018-Oct-24 04:50 UTC.
Position N 09°19' W 079°55'.

Length 156 m; draft 5.7 m.

Type: Passenger vessel. MMSI: 309027000.

Date/timePositionNaut miles runAvg speedWind from/ knotsBaromVisibWave heightAir tempDewpointWater temp
2018-Oct-16 12:22N 09°19' W 079°55'3 8.0
2018-Oct-16 12:03N 09°21' W 079°55'0 7.7
2018-Oct-16 12:00N 09°22' W 079°55'0 0.6
2018-Oct-16 11:21N 09°22' W 079°55'0 0.0
2018-Oct-16 11:03N 09°22' W 079°55'0 0.1
2018-Oct-16 11:00N 09°22' W 079°55'1 1.5
2018-Oct-16 10:30N 09°23' W 079°55'1 3.1
2018-Oct-16 10:03N 09°23' W 079°54'0 5.2
2018-Oct-16 10:00N 09°23' W 079°54'1 1.6
2018-Oct-16 09:28N 09°22' W 079°54'0 0.0
2018-Oct-16 09:01N 09°22' W 079°54'0 0.0
2018-Oct-16 08:58N 09°22' W 079°54'0 0.0
2018-Oct-16 08:28N 09°22' W 079°54'0 0.0
2018-Oct-16 08:01N 09°22' W 079°54'0 0.0
2018-Oct-16 07:58N 09°22' W 079°54'0 0.0
2018-Oct-16 07:28N 09°22' W 079°54'0 0.0
2018-Oct-16 07:01N 09°22' W 079°54'0 0.0
2018-Oct-16 06:58N 09°22' W 079°54'0 0.0
2018-Oct-16 06:28N 09°22' W 079°54'0 0.0
2018-Oct-16 06:01N 09°22' W 079°54'0 0.1
2018-Oct-16 05:58N 09°22' W 079°54'0 0.0
2018-Oct-16 05:28N 09°22' W 079°54'0 0.0
2018-Oct-16 05:01N 09°22' W 079°54'0 0.0
2018-Oct-16 04:58N 09°22' W 079°54'0 0.0
2018-Oct-16 04:28N 09°22' W 079°54'0 0.0
2018-Oct-16 04:01N 09°22' W 079°54'0 0.0
2018-Oct-16 03:58N 09°22' W 079°54'0 0.0
2018-Oct-16 03:28N 09°22' W 079°54'0 0.0
2018-Oct-16 03:01N 09°22' W 079°54'0 0.0
2018-Oct-16 02:58N 09°22' W 079°54'0 0.0
2018-Oct-16 02:28N 09°22' W 079°54'0 0.0
2018-Oct-16 02:01N 09°22' W 079°54'0 0.0
2018-Oct-16 01:58N 09°22' W 079°54'0 0.0
2018-Oct-16 01:28N 09°22' W 079°54'0 0.0
2018-Oct-16 01:01N 09°22' W 079°54'0 0.0
2018-Oct-16 00:58N 09°22' W 079°54'0 0.0
2018-Oct-16 00:28N 09°22' W 079°54'0 0.0
2018-Oct-16 00:01N 09°22' W 079°54'0 0.0
2018-Oct-15 23:58N 09°22' W 079°54'0 0.0
2018-Oct-15 23:28N 09°22' W 079°54'0 0.0
2018-Oct-15 23:01N 09°22' W 079°54'0 0.0
2018-Oct-15 22:58N 09°22' W 079°54'0 0.0
2018-Oct-15 22:28N 09°22' W 079°54'0 0.0
2018-Oct-15 22:01N 09°22' W 079°54'0 0.0
2018-Oct-15 21:58N 09°22' W 079°54'0 0.0
2018-Oct-15 21:28N 09°22' W 079°54'0 0.0
2018-Oct-15 21:01N 09°22' W 079°54'0 0.0
2018-Oct-15 20:58N 09°22' W 079°54'0 0.0
2018-Oct-15 20:28N 09°22' W 079°54'0 0.0
2018-Oct-15 20:01N 09°22' W 079°54'0 0.0
2018-Oct-15 19:58N 09°22' W 079°54'0 0.0
2018-Oct-15 19:28N 09°22' W 079°54'0 0.0
2018-Oct-15 19:01N 09°22' W 079°54'0 0.1
2018-Oct-15 18:55N 09°22' W 079°54'0 0.0
2018-Oct-15 18:28N 09°22' W 079°54'0 0.0
2018-Oct-15 18:01N 09°22' W 079°54'0 0.0
2018-Oct-15 17:58N 09°22' W 079°54'0 0.0
2018-Oct-15 17:28N 09°22' W 079°54'0 0.0
2018-Oct-15 17:01N 09°22' W 079°54'0 0.1
2018-Oct-15 16:58N 09°22' W 079°54'0 0.0
2018-Oct-15 16:25N 09°22' W 079°54'0 0.0
2018-Oct-15 16:01N 09°22' W 079°54'0 0.0
2018-Oct-15 15:58N 09°22' W 079°54'0 0.0
2018-Oct-15 15:28N 09°22' W 079°54'0 0.0
2018-Oct-15 15:01N 09°22' W 079°54'0 0.0
2018-Oct-15 14:58N 09°22' W 079°54'0 0.0
2018-Oct-15 14:28N 09°22' W 079°54'0 0.0
2018-Oct-15 13:58N 09°22' W 079°54'0 0.0
2018-Oct-15 13:28N 09°22' W 079°54'0 0.0
2018-Oct-15 13:01N 09°22' W 079°54'0 0.0
2018-Oct-15 12:58N 09°22' W 079°54'0 0.0
2018-Oct-15 12:28N 09°22' W 079°54'0 0.0
2018-Oct-15 12:03N 09°22' W 079°54'0 0.0
2018-Oct-15 12:00N 09°22' W 079°54'0 0.0
2018-Oct-15 11:30N 09°22' W 079°54'0 0.9
2018-Oct-15 11:03N 09°22' W 079°54'0 2.8
2018-Oct-15 11:00N 09°22' W 079°54'2 4.9
2018-Oct-15 10:30N 09°25' W 079°54'711.4
2018-Oct-15 09:51N 09°32' W 079°53'253 8.6
2018-Oct-14 04:20N 10°18' W 075°40'516.4
2018-Oct-14 04:03N 10°19' W 075°36'0 8.6
2018-Oct-14 04:00N 10°19' W 075°35'4 8.6
2018-Oct-14 03:30N 10°22' W 075°32'3 4.9
2018-Oct-14 02:56N 10°24' W 075°32'0 0.0
2018-Oct-14 02:26N 10°24' W 075°32'0 0.0
2018-Oct-14 02:02N 10°24' W 075°32'0 0.1
2018-Oct-14 01:59N 10°24' W 075°32'0 0.0
2018-Oct-14 01:26N 10°24' W 075°32'0 0.0
2018-Oct-14 00:56N 10°24' W 075°32'0 0.0
2018-Oct-14 00:23N 10°24' W 075°32'0 0.0
2018-Oct-13 23:32N 10°24' W 075°32'0 0.0
2018-Oct-13 23:20N 10°24' W 075°32'0 0.0
2018-Oct-13 23:02N 10°24' W 075°32'0 0.1
2018-Oct-13 22:56N 10°24' W 075°32'0 0.0
2018-Oct-13 17:50N 10°24' W 075°32'0 0.0
2018-Oct-13 17:26N 10°24' W 075°32'0 0.0
2018-Oct-13 17:02N 10°24' W 075°32'0 0.1
2018-Oct-13 16:56N 10°24' W 075°32'0 0.0
2018-Oct-13 16:26N 10°24' W 075°32'0 0.0
2018-Oct-13 16:02N 10°24' W 075°32'0 0.0
2018-Oct-13 15:59N 10°24' W 075°32'0 0.0
2018-Oct-13 15:26N 10°24' W 075°32'0 0.0
2018-Oct-13 12:56N 10°24' W 075°32'0 0.0
2018-Oct-13 12:17N 10°24' W 075°32'0 0.0
2018-Oct-13 12:02N 10°24' W 075°32'0 0.0
2018-Oct-13 11:59N 10°24' W 075°32'0 0.6
2018-Oct-13 11:30N 10°24' W 075°32'3 5.7
2018-Oct-13 11:02N 10°21' W 075°32'010.0
2018-Oct-13 11:00N 10°21' W 075°32'5 9.4
2018-Oct-13 10:30N 10°19' W 075°36'713.7
2018-Oct-13 10:01N 10°22' W 075°42'115.1
2018-Oct-13 09:59N 10°22' W 075°43'  

Dump ship's entire track history